sensor_id;sensor_type;location;lat;lon;timestamp;P1;durP1;ratioP1;P2;durP2;ratioP2
64609;SDS011;51019;46.090;6.350;2022-10-16T00:01:43;306.40;;;285.92;;
64609;SDS011;51019;46.090;6.350;2022-10-16T00:04:10;298.77;;;279.02;;
64609;SDS011;51019;46.090;6.350;2022-10-16T00:06:39;253.52;;;236.73;;
64609;SDS011;51019;46.090;6.350;2022-10-16T00:09:06;267.67;;;249.75;;
64609;SDS011;51019;46.090;6.350;2022-10-16T00:11:37;282.33;;;263.35;;
64609;SDS011;51019;46.090;6.350;2022-10-16T00:14:07;295.20;;;275.90;;
64609;SDS011;51019;46.090;6.350;2022-10-16T00:16:37;269.05;;;251.55;;
64609;SDS011;51019;46.090;6.350;2022-10-16T00:19:07;287.35;;;268.17;;
64609;SDS011;51019;46.090;6.350;2022-10-16T00:21:35;289.25;;;269.40;;
64609;SDS011;51019;46.090;6.350;2022-10-16T00:24:05;290.27;;;271.02;;
64609;SDS011;51019;46.090;6.350;2022-10-16T00:26:35;267.75;;;250.07;;
64609;SDS011;51019;46.090;6.350;2022-10-16T00:29:04;290.90;;;270.83;;
64609;SDS011;51019;46.090;6.350;2022-10-16T00:31:32;291.75;;;272.85;;
64609;SDS011;51019;46.090;6.350;2022-10-16T00:34:00;300.40;;;280.48;;
64609;SDS011;51019;46.090;6.350;2022-10-16T00:36:29;286.65;;;267.45;;
64609;SDS011;51019;46.090;6.350;2022-10-16T00:38:57;279.35;;;261.20;;
64609;SDS011;51019;46.090;6.350;2022-10-16T00:41:27;284.23;;;266.27;;
64609;SDS011;51019;46.090;6.350;2022-10-16T00:43:55;279.27;;;261.42;;
64609;SDS011;51019;46.090;6.350;2022-10-16T00:46:24;284.40;;;266.33;;
64609;SDS011;51019;46.090;6.350;2022-10-16T00:48:55;281.30;;;262.95;;
64609;SDS011;51019;46.090;6.350;2022-10-16T00:51:30;256.45;;;239.52;;
64609;SDS011;51019;46.090;6.350;2022-10-16T00:54:03;275.88;;;258.00;;
64609;SDS011;51019;46.090;6.350;2022-10-16T00:56:34;294.65;;;275.83;;
64609;SDS011;51019;46.090;6.350;2022-10-16T00:59:03;252.10;;;236.75;;
64609;SDS011;51019;46.090;6.350;2022-10-16T01:01:34;295.30;;;276.33;;
64609;SDS011;51019;46.090;6.350;2022-10-16T01:04:03;291.88;;;272.92;;
64609;SDS011;51019;46.090;6.350;2022-10-16T01:06:33;305.80;;;285.48;;
64609;SDS011;51019;46.090;6.350;2022-10-16T01:09:10;292.42;;;273.38;;
64609;SDS011;51019;46.090;6.350;2022-10-16T01:11:44;286.45;;;268.05;;
64609;SDS011;51019;46.090;6.350;2022-10-16T01:14:19;283.00;;;264.40;;
64609;SDS011;51019;46.090;6.350;2022-10-16T01:16:55;289.10;;;269.85;;
64609;SDS011;51019;46.090;6.350;2022-10-16T01:19:32;303.88;;;283.80;;
64609;SDS011;51019;46.090;6.350;2022-10-16T01:22:12;304.55;;;284.60;;
64609;SDS011;51019;46.090;6.350;2022-10-16T01:24:41;293.35;;;274.10;;
64609;SDS011;51019;46.090;6.350;2022-10-16T01:27:15;298.83;;;279.77;;
64609;SDS011;51019;46.090;6.350;2022-10-16T01:29:48;274.17;;;256.45;;
64609;SDS011;51019;46.090;6.350;2022-10-16T01:32:24;295.90;;;276.92;;
64609;SDS011;51019;46.090;6.350;2022-10-16T01:35:01;279.17;;;262.52;;
64609;SDS011;51019;46.090;6.350;2022-10-16T01:37:32;311.10;;;291.58;;
64609;SDS011;51019;46.090;6.350;2022-10-16T01:40:08;288.77;;;270.75;;
64609;SDS011;51019;46.090;6.350;2022-10-16T01:42:42;285.85;;;267.92;;
64609;SDS011;51019;46.090;6.350;2022-10-16T01:45:14;282.75;;;265.00;;
64609;SDS011;51019;46.090;6.350;2022-10-16T01:47:46;301.58;;;282.27;;
64609;SDS011;51019;46.090;6.350;2022-10-16T01:50:16;284.25;;;265.30;;
64609;SDS011;51019;46.090;6.350;2022-10-16T01:52:47;295.30;;;277.25;;
64609;SDS011;51019;46.090;6.350;2022-10-16T01:55:22;291.58;;;272.48;;
64609;SDS011;51019;46.090;6.350;2022-10-16T01:57:57;309.52;;;290.25;;
64609;SDS011;51019;46.090;6.350;2022-10-16T02:00:27;296.65;;;278.20;;
64609;SDS011;51019;46.090;6.350;2022-10-16T02:02:56;304.58;;;284.77;;
64609;SDS011;51019;46.090;6.350;2022-10-16T02:05:30;304.38;;;285.02;;
64609;SDS011;51019;46.090;6.350;2022-10-16T02:08:00;293.02;;;275.17;;
64609;SDS011;51019;46.090;6.350;2022-10-16T02:10:29;307.42;;;288.08;;
64609;SDS011;51019;46.090;6.350;2022-10-16T02:13:02;260.75;;;244.98;;
64609;SDS011;51019;46.090;6.350;2022-10-16T02:15:32;312.27;;;292.38;;
64609;SDS011;51019;46.090;6.350;2022-10-16T02:17:59;296.75;;;278.30;;
64609;SDS011;51019;46.090;6.350;2022-10-16T02:20:28;303.30;;;284.08;;
64609;SDS011;51019;46.090;6.350;2022-10-16T02:22:59;292.38;;;273.63;;
64609;SDS011;51019;46.090;6.350;2022-10-16T02:25:29;305.88;;;285.70;;
64609;SDS011;51019;46.090;6.350;2022-10-16T02:28:02;259.55;;;244.05;;
64609;SDS011;51019;46.090;6.350;2022-10-16T02:30:33;304.33;;;286.33;;
64609;SDS011;51019;46.090;6.350;2022-10-16T02:33:07;290.40;;;271.55;;
64609;SDS011;51019;46.090;6.350;2022-10-16T02:35:38;281.27;;;264.77;;
64609;SDS011;51019;46.090;6.350;2022-10-16T02:38:08;308.48;;;289.65;;
64609;SDS011;51019;46.090;6.350;2022-10-16T02:40:37;296.23;;;276.92;;
64609;SDS011;51019;46.090;6.350;2022-10-16T02:43:07;306.75;;;287.58;;
64609;SDS011;51019;46.090;6.350;2022-10-16T02:45:35;268.00;;;251.10;;
64609;SDS011;51019;46.090;6.350;2022-10-16T02:48:03;289.60;;;271.92;;
64609;SDS011;51019;46.090;6.350;2022-10-16T02:50:31;280.50;;;263.23;;
64609;SDS011;51019;46.090;6.350;2022-10-16T02:52:59;298.00;;;279.23;;
64609;SDS011;51019;46.090;6.350;2022-10-16T02:55:26;285.52;;;268.02;;
64609;SDS011;51019;46.090;6.350;2022-10-16T02:57:55;282.88;;;265.17;;
64609;SDS011;51019;46.090;6.350;2022-10-16T03:00:25;288.77;;;270.15;;
64609;SDS011;51019;46.090;6.350;2022-10-16T03:02:53;299.08;;;280.45;;
64609;SDS011;51019;46.090;6.350;2022-10-16T03:05:20;314.30;;;294.48;;
64609;SDS011;51019;46.090;6.350;2022-10-16T03:07:49;297.25;;;278.30;;
64609;SDS011;51019;46.090;6.350;2022-10-16T03:10:17;297.00;;;278.25;;
64609;SDS011;51019;46.090;6.350;2022-10-16T03:12:45;291.52;;;273.13;;
64609;SDS011;51019;46.090;6.350;2022-10-16T03:15:12;275.00;;;258.77;;
64609;SDS011;51019;46.090;6.350;2022-10-16T03:17:42;291.48;;;274.13;;
64609;SDS011;51019;46.090;6.350;2022-10-16T03:20:10;311.02;;;291.73;;
64609;SDS011;51019;46.090;6.350;2022-10-16T03:22:37;316.30;;;295.75;;
64609;SDS011;51019;46.090;6.350;2022-10-16T03:25:07;266.42;;;249.32;;
64609;SDS011;51019;46.090;6.350;2022-10-16T03:27:35;304.10;;;284.98;;
64609;SDS011;51019;46.090;6.350;2022-10-16T03:30:02;303.67;;;284.58;;
64609;SDS011;51019;46.090;6.350;2022-10-16T03:32:32;296.65;;;278.05;;
64609;SDS011;51019;46.090;6.350;2022-10-16T03:35:01;309.58;;;289.95;;
64609;SDS011;51019;46.090;6.350;2022-10-16T03:37:29;289.55;;;270.60;;
64609;SDS011;51019;46.090;6.350;2022-10-16T03:39:57;286.08;;;268.42;;
64609;SDS011;51019;46.090;6.350;2022-10-16T03:42:25;293.63;;;274.75;;
64609;SDS011;51019;46.090;6.350;2022-10-16T03:44:52;303.30;;;284.10;;
64609;SDS011;51019;46.090;6.350;2022-10-16T03:47:20;309.48;;;289.42;;
64609;SDS011;51019;46.090;6.350;2022-10-16T03:49:49;298.40;;;279.85;;
64609;SDS011;51019;46.090;6.350;2022-10-16T03:52:18;292.20;;;273.33;;
64609;SDS011;51019;46.090;6.350;2022-10-16T03:54:47;284.50;;;267.08;;
64609;SDS011;51019;46.090;6.350;2022-10-16T03:57:14;299.45;;;281.40;;
64609;SDS011;51019;46.090;6.350;2022-10-16T03:59:42;291.60;;;272.30;;
64609;SDS011;51019;46.090;6.350;2022-10-16T04:02:09;291.98;;;274.95;;
64609;SDS011;51019;46.090;6.350;2022-10-16T04:04:37;278.50;;;261.15;;
64609;SDS011;51019;46.090;6.350;2022-10-16T04:07:05;282.67;;;264.65;;
64609;SDS011;51019;46.090;6.350;2022-10-16T04:09:35;320.65;;;300.58;;
64609;SDS011;51019;46.090;6.350;2022-10-16T04:12:03;283.02;;;265.50;;
64609;SDS011;51019;46.090;6.350;2022-10-16T04:14:31;298.40;;;279.15;;
64609;SDS011;51019;46.090;6.350;2022-10-16T04:16:59;314.00;;;293.70;;
64609;SDS011;51019;46.090;6.350;2022-10-16T04:19:26;308.63;;;288.42;;
64609;SDS011;51019;46.090;6.350;2022-10-16T04:21:54;287.60;;;270.17;;
64609;SDS011;51019;46.090;6.350;2022-10-16T04:24:22;285.27;;;267.63;;
64609;SDS011;51019;46.090;6.350;2022-10-16T04:26:52;307.15;;;287.67;;
64609;SDS011;51019;46.090;6.350;2022-10-16T04:29:20;284.50;;;266.15;;
64609;SDS011;51019;46.090;6.350;2022-10-16T04:31:47;286.30;;;268.55;;
64609;SDS011;51019;46.090;6.350;2022-10-16T04:34:15;301.20;;;282.63;;
64609;SDS011;51019;46.090;6.350;2022-10-16T04:36:43;283.30;;;265.13;;
64609;SDS011;51019;46.090;6.350;2022-10-16T04:39:10;287.40;;;269.73;;
64609;SDS011;51019;46.090;6.350;2022-10-16T04:41:37;284.63;;;266.42;;
64609;SDS011;51019;46.090;6.350;2022-10-16T04:44:07;292.02;;;274.25;;
64609;SDS011;51019;46.090;6.350;2022-10-16T04:46:35;295.98;;;277.90;;
64609;SDS011;51019;46.090;6.350;2022-10-16T04:49:05;258.73;;;244.15;;
64609;SDS011;51019;46.090;6.350;2022-10-16T04:51:32;296.00;;;276.17;;
64609;SDS011;51019;46.090;6.350;2022-10-16T04:53:59;262.50;;;247.00;;
64609;SDS011;51019;46.090;6.350;2022-10-16T04:56:27;243.98;;;229.75;;
64609;SDS011;51019;46.090;6.350;2022-10-16T04:58:54;270.55;;;254.35;;
64609;SDS011;51019;46.090;6.350;2022-10-16T05:01:24;282.23;;;264.73;;
64609;SDS011;51019;46.090;6.350;2022-10-16T05:03:52;310.13;;;290.80;;
64609;SDS011;51019;46.090;6.350;2022-10-16T05:06:20;263.58;;;247.73;;
64609;SDS011;51019;46.090;6.350;2022-10-16T05:08:48;278.50;;;261.20;;
64609;SDS011;51019;46.090;6.350;2022-10-16T05:11:16;310.85;;;290.15;;
64609;SDS011;51019;46.090;6.350;2022-10-16T05:13:44;324.75;;;303.58;;
64609;SDS011;51019;46.090;6.350;2022-10-16T05:16:11;328.52;;;306.40;;
64609;SDS011;51019;46.090;6.350;2022-10-16T05:18:40;315.10;;;294.38;;
64609;SDS011;51019;46.090;6.350;2022-10-16T05:21:07;305.23;;;284.70;;
64609;SDS011;51019;46.090;6.350;2022-10-16T05:23:35;296.50;;;277.23;;
64609;SDS011;51019;46.090;6.350;2022-10-16T05:26:03;303.13;;;283.23;;
64609;SDS011;51019;46.090;6.350;2022-10-16T05:28:30;305.30;;;285.13;;
64609;SDS011;51019;46.090;6.350;2022-10-16T05:30:58;318.38;;;297.52;;
64609;SDS011;51019;46.090;6.350;2022-10-16T05:33:26;303.58;;;283.65;;
64609;SDS011;51019;46.090;6.350;2022-10-16T05:35:55;300.95;;;281.90;;
64609;SDS011;51019;46.090;6.350;2022-10-16T05:38:23;298.67;;;278.65;;
64609;SDS011;51019;46.090;6.350;2022-10-16T05:40:55;309.15;;;289.17;;
64609;SDS011;51019;46.090;6.350;2022-10-16T05:43:23;287.33;;;267.98;;
64609;SDS011;51019;46.090;6.350;2022-10-16T05:45:55;293.85;;;274.67;;
64609;SDS011;51019;46.090;6.350;2022-10-16T05:48:23;299.20;;;279.10;;
64609;SDS011;51019;46.090;6.350;2022-10-16T05:51:00;316.83;;;296.08;;
64609;SDS011;51019;46.090;6.350;2022-10-16T05:53:30;298.58;;;279.70;;
64609;SDS011;51019;46.090;6.350;2022-10-16T05:55:59;289.98;;;270.35;;
64609;SDS011;51019;46.090;6.350;2022-10-16T05:58:28;309.63;;;289.50;;
64609;SDS011;51019;46.090;6.350;2022-10-16T06:00:56;288.90;;;269.65;;
64609;SDS011;51019;46.090;6.350;2022-10-16T06:03:27;314.55;;;293.13;;
64609;SDS011;51019;46.090;6.350;2022-10-16T06:05:54;319.10;;;297.25;;
64609;SDS011;51019;46.090;6.350;2022-10-16T06:08:24;320.20;;;298.42;;
64609;SDS011;51019;46.090;6.350;2022-10-16T06:10:59;315.08;;;294.15;;
64609;SDS011;51019;46.090;6.350;2022-10-16T06:13:28;314.00;;;292.40;;
64609;SDS011;51019;46.090;6.350;2022-10-16T06:15:56;309.88;;;289.17;;
64609;SDS011;51019;46.090;6.350;2022-10-16T06:18:25;309.48;;;288.10;;
64609;SDS011;51019;46.090;6.350;2022-10-16T06:20:52;338.08;;;314.90;;
64609;SDS011;51019;46.090;6.350;2022-10-16T06:23:20;337.23;;;314.13;;
64609;SDS011;51019;46.090;6.350;2022-10-16T06:25:49;312.65;;;290.80;;
64609;SDS011;51019;46.090;6.350;2022-10-16T06:28:16;316.73;;;294.40;;
64609;SDS011;51019;46.090;6.350;2022-10-16T06:30:44;327.38;;;304.45;;
64609;SDS011;51019;46.090;6.350;2022-10-16T06:33:11;318.67;;;296.65;;
64609;SDS011;51019;46.090;6.350;2022-10-16T06:35:39;319.25;;;297.50;;
64609;SDS011;51019;46.090;6.350;2022-10-16T06:38:09;307.70;;;286.33;;
64609;SDS011;51019;46.090;6.350;2022-10-16T06:40:36;294.65;;;273.67;;
64609;SDS011;51019;46.090;6.350;2022-10-16T06:43:05;314.50;;;292.55;;
64609;SDS011;51019;46.090;6.350;2022-10-16T06:45:33;322.30;;;299.77;;
64609;SDS011;51019;46.090;6.350;2022-10-16T06:48:00;317.20;;;294.77;;
64609;SDS011;51019;46.090;6.350;2022-10-16T06:50:37;304.08;;;283.67;;
64609;SDS011;51019;46.090;6.350;2022-10-16T06:53:05;299.27;;;279.83;;
64609;SDS011;51019;46.090;6.350;2022-10-16T06:55:32;325.85;;;304.27;;
64609;SDS011;51019;46.090;6.350;2022-10-16T06:58:00;309.83;;;288.50;;
64609;SDS011;51019;46.090;6.350;2022-10-16T07:00:37;314.05;;;292.08;;
64609;SDS011;51019;46.090;6.350;2022-10-16T07:03:04;292.73;;;273.38;;
64609;SDS011;51019;46.090;6.350;2022-10-16T07:05:36;325.17;;;302.63;;
64609;SDS011;51019;46.090;6.350;2022-10-16T07:08:04;310.45;;;289.08;;
64609;SDS011;51019;46.090;6.350;2022-10-16T07:10:32;340.52;;;317.83;;
64609;SDS011;51019;46.090;6.350;2022-10-16T07:13:01;350.60;;;327.23;;
64609;SDS011;51019;46.090;6.350;2022-10-16T07:15:29;324.80;;;302.40;;
64609;SDS011;51019;46.090;6.350;2022-10-16T07:18:00;351.45;;;328.30;;
64609;SDS011;51019;46.090;6.350;2022-10-16T07:20:29;340.45;;;318.13;;
64609;SDS011;51019;46.090;6.350;2022-10-16T07:22:57;311.92;;;291.98;;
64609;SDS011;51019;46.090;6.350;2022-10-16T07:25:25;336.88;;;314.65;;
64609;SDS011;51019;46.090;6.350;2022-10-16T07:27:57;331.23;;;310.13;;
64609;SDS011;51019;46.090;6.350;2022-10-16T07:30:24;313.67;;;293.55;;
64609;SDS011;51019;46.090;6.350;2022-10-16T07:32:52;352.30;;;329.15;;
64609;SDS011;51019;46.090;6.350;2022-10-16T07:35:22;348.92;;;326.90;;
64609;SDS011;51019;46.090;6.350;2022-10-16T07:37:49;362.08;;;338.30;;
64609;SDS011;51019;46.090;6.350;2022-10-16T07:40:17;349.90;;;326.92;;
64609;SDS011;51019;46.090;6.350;2022-10-16T07:42:44;341.52;;;319.45;;
64609;SDS011;51019;46.090;6.350;2022-10-16T07:45:11;356.65;;;333.63;;
64609;SDS011;51019;46.090;6.350;2022-10-16T07:47:40;334.05;;;313.13;;
64609;SDS011;51019;46.090;6.350;2022-10-16T07:50:07;300.90;;;282.52;;
64609;SDS011;51019;46.090;6.350;2022-10-16T07:52:38;318.90;;;298.67;;
64609;SDS011;51019;46.090;6.350;2022-10-16T07:55:06;296.38;;;277.65;;
64609;SDS011;51019;46.090;6.350;2022-10-16T07:57:33;267.05;;;251.27;;
64609;SDS011;51019;46.090;6.350;2022-10-16T08:00:01;232.48;;;218.52;;
64609;SDS011;51019;46.090;6.350;2022-10-16T08:02:28;173.63;;;164.57;;
64609;SDS011;51019;46.090;6.350;2022-10-16T08:04:56;157.23;;;148.98;;
64609;SDS011;51019;46.090;6.350;2022-10-16T08:07:23;120.60;;;114.25;;
64609;SDS011;51019;46.090;6.350;2022-10-16T08:09:53;84.03;;;79.38;;
64609;SDS011;51019;46.090;6.350;2022-10-16T08:12:21;46.25;;;43.53;;
64609;SDS011;51019;46.090;6.350;2022-10-16T08:14:49;76.60;;;72.50;;
64609;SDS011;51019;46.090;6.350;2022-10-16T08:17:16;25.58;;;23.55;;
64609;SDS011;51019;46.090;6.350;2022-10-16T08:19:45;21.55;;;19.85;;
64609;SDS011;51019;46.090;6.350;2022-10-16T08:22:13;51.95;;;48.83;;
64609;SDS011;51019;46.090;6.350;2022-10-16T08:24:41;55.20;;;51.95;;
64609;SDS011;51019;46.090;6.350;2022-10-16T08:27:11;74.32;;;70.43;;
64609;SDS011;51019;46.090;6.350;2022-10-16T08:29:40;66.05;;;62.40;;
64609;SDS011;51019;46.090;6.350;2022-10-16T08:32:08;58.13;;;55.00;;
64609;SDS011;51019;46.090;6.350;2022-10-16T08:34:36;49.85;;;46.95;;
64609;SDS011;51019;46.090;6.350;2022-10-16T08:37:03;77.28;;;73.22;;
64609;SDS011;51019;46.090;6.350;2022-10-16T08:39:32;75.13;;;71.05;;
64609;SDS011;51019;46.090;6.350;2022-10-16T08:48:05;52.95;;;49.72;;
64609;SDS011;51019;46.090;6.350;2022-10-16T08:50:41;80.75;;;76.15;;
64609;SDS011;51019;46.090;6.350;2022-10-16T08:53:10;71.95;;;68.20;;
64609;SDS011;51019;46.090;6.350;2022-10-16T08:55:44;131.15;;;124.28;;
64609;SDS011;51019;46.090;6.350;2022-10-16T08:58:16;81.50;;;77.32;;
64609;SDS011;51019;46.090;6.350;2022-10-16T09:00:46;82.72;;;78.25;;
64609;SDS011;51019;46.090;6.350;2022-10-16T09:03:22;74.43;;;70.60;;
64609;SDS011;51019;46.090;6.350;2022-10-16T09:08:51;23.08;;;21.17;;
64609;SDS011;51019;46.090;6.350;2022-10-16T09:11:31;26.75;;;24.92;;
64609;SDS011;51019;46.090;6.350;2022-10-16T09:14:17;26.08;;;23.98;;
64609;SDS011;51019;46.090;6.350;2022-10-16T09:17:03;29.38;;;27.30;;
64609;SDS011;51019;46.090;6.350;2022-10-16T09:19:44;26.38;;;24.48;;
64609;SDS011;51019;46.090;6.350;2022-10-16T09:22:25;27.42;;;25.45;;
64609;SDS011;51019;46.090;6.350;2022-10-16T09:24:55;48.88;;;45.90;;
64609;SDS011;51019;46.090;6.350;2022-10-16T09:27:27;44.13;;;41.17;;
64609;SDS011;51019;46.090;6.350;2022-10-16T09:29:57;40.95;;;38.33;;
64609;SDS011;51019;46.090;6.350;2022-10-16T09:32:25;26.85;;;24.90;;
64609;SDS011;51019;46.090;6.350;2022-10-16T09:34:55;23.15;;;21.45;;
64609;SDS011;51019;46.090;6.350;2022-10-16T09:37:23;20.15;;;18.52;;
64609;SDS011;51019;46.090;6.350;2022-10-16T09:39:53;16.67;;;15.18;;
64609;SDS011;51019;46.090;6.350;2022-10-16T09:42:22;19.02;;;17.52;;
64609;SDS011;51019;46.090;6.350;2022-10-16T09:44:54;15.07;;;13.68;;
64609;SDS011;51019;46.090;6.350;2022-10-16T09:47:23;19.90;;;18.08;;
64609;SDS011;51019;46.090;6.350;2022-10-16T09:49:54;18.63;;;17.13;;
64609;SDS011;51019;46.090;6.350;2022-10-16T09:52:28;20.00;;;18.45;;
64609;SDS011;51019;46.090;6.350;2022-10-16T09:54:57;27.50;;;25.60;;
64609;SDS011;51019;46.090;6.350;2022-10-16T09:57:26;16.70;;;15.20;;
64609;SDS011;51019;46.090;6.350;2022-10-16T09:59:57;18.85;;;17.27;;
64609;SDS011;51019;46.090;6.350;2022-10-16T10:02:29;15.43;;;14.02;;
64609;SDS011;51019;46.090;6.350;2022-10-16T10:05:00;16.65;;;15.07;;
64609;SDS011;51019;46.090;6.350;2022-10-16T10:07:31;20.65;;;19.05;;
64609;SDS011;51019;46.090;6.350;2022-10-16T10:10:01;15.82;;;14.30;;
64609;SDS011;51019;46.090;6.350;2022-10-16T10:12:30;16.80;;;15.40;;
64609;SDS011;51019;46.090;6.350;2022-10-16T10:15:03;16.65;;;15.15;;
64609;SDS011;51019;46.090;6.350;2022-10-16T10:17:44;16.93;;;15.33;;
64609;SDS011;51019;46.090;6.350;2022-10-16T10:20:24;17.20;;;15.70;;
64609;SDS011;51019;46.090;6.350;2022-10-16T10:22:54;16.73;;;15.32;;
64609;SDS011;51019;46.090;6.350;2022-10-16T10:25:29;15.45;;;14.07;;
64609;SDS011;51019;46.090;6.350;2022-10-16T10:28:17;16.15;;;14.75;;
64609;SDS011;51019;46.090;6.350;2022-10-16T10:30:55;12.15;;;10.95;;
64609;SDS011;51019;46.090;6.350;2022-10-16T10:33:31;11.07;;;9.45;;
64609;SDS011;51019;46.090;6.350;2022-10-16T10:36:08;10.85;;;9.07;;
64609;SDS011;51019;46.090;6.350;2022-10-16T10:38:53;11.20;;;9.50;;
64609;SDS011;51019;46.090;6.350;2022-10-16T10:41:34;11.55;;;10.07;;
64609;SDS011;51019;46.090;6.350;2022-10-16T10:44:26;10.75;;;8.75;;
64609;SDS011;51019;46.090;6.350;2022-10-16T10:47:06;11.13;;;9.43;;
64609;SDS011;51019;46.090;6.350;2022-10-16T10:49:50;12.52;;;8.82;;
64609;SDS011;51019;46.090;6.350;2022-10-16T10:52:34;16.20;;;14.80;;
64609;SDS011;51019;46.090;6.350;2022-10-16T10:55:11;12.77;;;10.20;;
64609;SDS011;51019;46.090;6.350;2022-10-16T10:57:59;12.52;;;8.98;;
64609;SDS011;51019;46.090;6.350;2022-10-16T11:00:45;11.63;;;10.43;;
64609;SDS011;51019;46.090;6.350;2022-10-16T11:03:26;11.82;;;10.63;;
64609;SDS011;51019;46.090;6.350;2022-10-16T11:06:04;23.58;;;21.98;;
64609;SDS011;51019;46.090;6.350;2022-10-16T11:08:39;23.42;;;21.70;;
64609;SDS011;51019;46.090;6.350;2022-10-16T11:16:13;20.67;;;19.05;;
64609;SDS011;51019;46.090;6.350;2022-10-16T11:18:47;18.20;;;16.73;;
64609;SDS011;51019;46.090;6.350;2022-10-16T11:21:21;19.33;;;17.75;;
64609;SDS011;51019;46.090;6.350;2022-10-16T11:23:51;21.00;;;19.40;;
64609;SDS011;51019;46.090;6.350;2022-10-16T11:26:25;21.27;;;19.58;;
64609;SDS011;51019;46.090;6.350;2022-10-16T11:28:57;23.38;;;21.73;;
64609;SDS011;51019;46.090;6.350;2022-10-16T11:31:27;23.33;;;21.60;;
64609;SDS011;51019;46.090;6.350;2022-10-16T11:34:03;20.30;;;18.75;;
64609;SDS011;51019;46.090;6.350;2022-10-16T11:36:41;27.88;;;25.77;;
64609;SDS011;51019;46.090;6.350;2022-10-16T11:39:17;23.70;;;21.77;;
64609;SDS011;51019;46.090;6.350;2022-10-16T11:41:48;25.00;;;22.98;;
64609;SDS011;51019;46.090;6.350;2022-10-16T11:44:31;20.67;;;19.17;;
64609;SDS011;51019;46.090;6.350;2022-10-16T11:47:09;24.10;;;22.45;;
64609;SDS011;51019;46.090;6.350;2022-10-16T11:49:46;23.88;;;22.15;;
64609;SDS011;51019;46.090;6.350;2022-10-16T11:52:19;22.75;;;21.05;;
64609;SDS011;51019;46.090;6.350;2022-10-16T11:54:53;22.92;;;21.27;;
64609;SDS011;51019;46.090;6.350;2022-10-16T11:57:26;18.42;;;16.92;;
64609;SDS011;51019;46.090;6.350;2022-10-16T12:00:00;17.50;;;15.95;;
64609;SDS011;51019;46.090;6.350;2022-10-16T12:02:49;18.35;;;16.90;;
64609;SDS011;51019;46.090;6.350;2022-10-16T12:05:24;19.08;;;17.58;;
64609;SDS011;51019;46.090;6.350;2022-10-16T12:08:04;24.83;;;23.08;;
64609;SDS011;51019;46.090;6.350;2022-10-16T12:10:36;23.08;;;21.40;;
64609;SDS011;51019;46.090;6.350;2022-10-16T12:13:25;29.15;;;27.20;;
64609;SDS011;51019;46.090;6.350;2022-10-16T12:16:04;29.90;;;27.85;;
64609;SDS011;51019;46.090;6.350;2022-10-16T12:18:33;25.35;;;23.55;;
64609;SDS011;51019;46.090;6.350;2022-10-16T12:21:01;36.03;;;33.75;;
64609;SDS011;51019;46.090;6.350;2022-10-16T12:23:36;46.83;;;43.88;;
64609;SDS011;51019;46.090;6.350;2022-10-16T12:26:07;38.60;;;36.05;;
64609;SDS011;51019;46.090;6.350;2022-10-16T12:28:34;29.73;;;27.77;;
64609;SDS011;51019;46.090;6.350;2022-10-16T12:31:04;42.20;;;39.55;;
64609;SDS011;51019;46.090;6.350;2022-10-16T12:33:35;71.53;;;67.53;;
64609;SDS011;51019;46.090;6.350;2022-10-16T12:36:05;63.70;;;60.13;;
64609;SDS011;51019;46.090;6.350;2022-10-16T12:38:48;83.50;;;79.07;;
64609;SDS011;51019;46.090;6.350;2022-10-16T12:41:23;97.43;;;92.57;;
64609;SDS011;51019;46.090;6.350;2022-10-16T12:43:53;83.60;;;79.30;;
64609;SDS011;51019;46.090;6.350;2022-10-16T12:46:23;78.47;;;74.40;;
64609;SDS011;51019;46.090;6.350;2022-10-16T12:49:06;70.13;;;66.43;;
64609;SDS011;51019;46.090;6.350;2022-10-16T12:51:47;83.78;;;79.65;;
64609;SDS011;51019;46.090;6.350;2022-10-16T12:54:18;98.07;;;93.30;;
64609;SDS011;51019;46.090;6.350;2022-10-16T12:56:51;72.25;;;68.53;;
64609;SDS011;51019;46.090;6.350;2022-10-16T12:59:35;102.47;;;97.47;;
64609;SDS011;51019;46.090;6.350;2022-10-16T13:02:19;118.38;;;112.65;;
64609;SDS011;51019;46.090;6.350;2022-10-16T13:08:10;126.85;;;120.60;;
64609;SDS011;51019;46.090;6.350;2022-10-16T13:10:54;99.25;;;94.47;;
64609;SDS011;51019;46.090;6.350;2022-10-16T13:13:39;139.80;;;133.32;;
64609;SDS011;51019;46.090;6.350;2022-10-16T13:16:24;115.47;;;110.10;;
64609;SDS011;51019;46.090;6.350;2022-10-16T13:18:59;124.10;;;118.32;;
64609;SDS011;51019;46.090;6.350;2022-10-16T13:21:39;165.88;;;157.35;;
64609;SDS011;51019;46.090;6.350;2022-10-16T13:24:25;162.02;;;153.93;;
64609;SDS011;51019;46.090;6.350;2022-10-16T13:27:10;155.40;;;147.68;;
64609;SDS011;51019;46.090;6.350;2022-10-16T13:29:49;164.38;;;156.30;;
64609;SDS011;51019;46.090;6.350;2022-10-16T13:32:20;205.55;;;194.68;;
64609;SDS011;51019;46.090;6.350;2022-10-16T13:34:49;198.35;;;188.00;;
64609;SDS011;51019;46.090;6.350;2022-10-16T13:37:18;216.05;;;204.50;;
64609;SDS011;51019;46.090;6.350;2022-10-16T13:39:49;217.75;;;206.30;;
64609;SDS011;51019;46.090;6.350;2022-10-16T13:42:21;236.90;;;224.18;;
64609;SDS011;51019;46.090;6.350;2022-10-16T13:44:51;218.65;;;207.02;;
64609;SDS011;51019;46.090;6.350;2022-10-16T13:47:21;207.82;;;196.75;;
64609;SDS011;51019;46.090;6.350;2022-10-16T13:49:59;221.40;;;209.55;;
64609;SDS011;51019;46.090;6.350;2022-10-16T13:52:28;180.23;;;171.02;;
64609;SDS011;51019;46.090;6.350;2022-10-16T13:54:56;199.20;;;188.73;;
64609;SDS011;51019;46.090;6.350;2022-10-16T13:57:26;184.55;;;175.32;;
64609;SDS011;51019;46.090;6.350;2022-10-16T13:59:54;205.20;;;194.55;;
64609;SDS011;51019;46.090;6.350;2022-10-16T14:02:22;226.55;;;213.60;;
64609;SDS011;51019;46.090;6.350;2022-10-16T14:04:53;177.95;;;168.70;;
64609;SDS011;51019;46.090;6.350;2022-10-16T14:07:24;183.98;;;174.38;;
64609;SDS011;51019;46.090;6.350;2022-10-16T14:09:53;200.75;;;190.05;;
64609;SDS011;51019;46.090;6.350;2022-10-16T14:12:21;216.88;;;204.70;;
64609;SDS011;51019;46.090;6.350;2022-10-16T14:14:52;233.85;;;220.55;;
64609;SDS011;51019;46.090;6.350;2022-10-16T14:17:24;230.05;;;217.27;;
64609;SDS011;51019;46.090;6.350;2022-10-16T14:19:54;241.38;;;227.40;;
64609;SDS011;51019;46.090;6.350;2022-10-16T14:22:27;269.95;;;253.98;;
64609;SDS011;51019;46.090;6.350;2022-10-16T14:24:58;250.10;;;235.88;;
64609;SDS011;51019;46.090;6.350;2022-10-16T14:27:29;252.23;;;237.38;;
64609;SDS011;51019;46.090;6.350;2022-10-16T14:30:08;246.40;;;232.95;;
64609;SDS011;51019;46.090;6.350;2022-10-16T14:32:40;235.27;;;221.82;;
64609;SDS011;51019;46.090;6.350;2022-10-16T14:35:23;243.20;;;229.57;;
64609;SDS011;51019;46.090;6.350;2022-10-16T14:37:59;252.85;;;237.95;;
64609;SDS011;51019;46.090;6.350;2022-10-16T14:40:28;265.77;;;250.55;;
64609;SDS011;51019;46.090;6.350;2022-10-16T14:42:57;252.57;;;238.27;;
64609;SDS011;51019;46.090;6.350;2022-10-16T14:45:29;247.00;;;232.52;;